Time;durP1;ratioP1;P1;durP2;ratioP2;P2;SDS_P1;SDS_P2;PMS_P1;PMS_P2;Temp;Humidity;BMP_temperature;BMP_pressure;BME280_temperature;BME280_humidity;BME280_pressure;Samples;Min_cycle;Max_cycle;Signal;HPM_P1;HPM_P2
2024/01/03 00:00:13;;;;;;;66.28;43.45;;;6.60;99.90;;;;;;4987883;28;20185;-74
2024/01/03 00:02:39;;;;;;;66.10;42.05;;;6.60;99.90;;;;;;4991900;28;20101;-74
2024/01/03 00:05:09;;;;;;;61.10;40.70;;;6.60;99.90;;;;;;4994372;28;20022;-74
2024/01/03 00:07:34;;;;;;;66.25;42.63;;;6.60;99.90;;;;;;4990426;28;20113;-74
2024/01/03 00:10:00;;;;;;;66.20;40.38;;;6.70;99.90;;;;;;4994179;28;20493;-74
2024/01/03 00:12:26;;;;;;;72.22;44.03;;;6.70;99.90;;;;;;4993745;28;20022;-74
2024/01/03 00:14:52;;;;;;;63.90;41.38;;;6.70;99.90;;;;;;4992988;28;20511;-74
2024/01/03 00:17:20;;;;;;;63.58;42.03;;;6.70;99.90;;;;;;4993701;28;20022;-74
2024/01/03 00:19:54;;;;;;;67.95;42.53;;;6.70;99.90;;;;;;4991817;28;20026;-74
2024/01/03 00:22:20;;;;;;;60.83;40.33;;;6.70;99.90;;;;;;4986590;28;20057;-74
2024/01/03 00:24:48;;;;;;;66.15;41.72;;;6.70;99.90;;;;;;4983571;28;20058;-74
2024/01/03 00:27:15;;;;;;;60.33;40.95;;;6.70;99.90;;;;;;4992071;28;20060;-74
2024/01/03 00:29:53;;;;;;;72.70;44.78;;;6.70;99.90;;;;;;4993838;28;20091;-74
2024/01/03 00:32:20;;;;;;;65.05;43.05;;;6.70;99.90;;;;;;5005488;28;20489;-74
2024/01/03 00:34:46;;;;;;;65.57;43.83;;;6.70;99.90;;;;;;4992256;28;20041;-74
2024/01/03 00:37:23;;;;;;;63.22;41.15;;;6.70;99.90;;;;;;4993449;28;20038;-74
2024/01/03 00:39:49;;;;;;;67.22;41.88;;;6.70;99.90;;;;;;4984652;28;20393;-74
2024/01/03 00:42:15;;;;;;;62.75;41.55;;;6.70;99.90;;;;;;4993017;28;20027;-74
2024/01/03 00:44:41;;;;;;;55.45;36.63;;;6.70;99.90;;;;;;4993636;28;20077;-74
2024/01/03 00:47:07;;;;;;;57.88;40.65;;;6.70;99.90;;;;;;4993968;28;20030;-74
2024/01/03 00:49:34;;;;;;;56.20;37.90;;;6.70;99.90;;;;;;4995373;28;20424;-74
2024/01/03 00:52:00;;;;;;;60.42;39.80;;;6.70;99.90;;;;;;4990372;28;20507;-74
2024/01/03 00:54:28;;;;;;;57.53;38.03;;;6.70;99.90;;;;;;4989574;28;20042;-74
2024/01/03 00:56:54;;;;;;;53.67;37.42;;;6.70;99.90;;;;;;4989671;28;20037;-74
2024/01/03 00:59:20;;;;;;;61.22;37.13;;;6.70;99.90;;;;;;4993203;28;20495;-74
2024/01/03 01:01:47;;;;;;;59.78;38.13;;;6.70;99.90;;;;;;4989544;28;20026;-74
2024/01/03 01:04:15;;;;;;;51.90;36.30;;;6.70;99.90;;;;;;4993295;28;20027;-74
2024/01/03 01:06:43;;;;;;;55.80;38.05;;;6.70;99.90;;;;;;4988446;28;20037;-74
2024/01/03 01:09:09;;;;;;;49.35;35.28;;;6.70;99.90;;;;;;4995016;28;20030;-74
2024/01/03 01:11:35;;;;;;;49.90;36.25;;;6.70;99.90;;;;;;4992756;28;20037;-74
2024/01/03 01:14:02;;;;;;;53.22;36.90;;;6.70;99.90;;;;;;4991060;28;20041;-74
2024/01/03 01:16:28;;;;;;;55.67;37.63;;;6.70;99.90;;;;;;4988973;28;20117;-74
2024/01/03 01:18:53;;;;;;;60.17;38.13;;;6.70;99.90;;;;;;4992356;28;20062;-74
2024/01/03 01:21:19;;;;;;;63.58;40.45;;;6.70;99.90;;;;;;4991938;28;20076;-74
2024/01/03 01:23:45;;;;;;;62.28;38.92;;;6.60;99.90;;;;;;4991327;28;20030;-74
2024/01/03 01:26:11;;;;;;;54.35;35.60;;;6.60;99.90;;;;;;4992921;28;20061;-74
2024/01/03 01:28:37;;;;;;;46.30;32.90;;;6.60;99.90;;;;;;4991108;28;20117;-74
2024/01/03 01:31:03;;;;;;;38.72;28.45;;;6.60;99.90;;;;;;4991388;28;20170;-74
2024/01/03 01:33:29;;;;;;;34.47;23.90;;;6.60;99.90;;;;;;4989875;28;20034;-74
2024/01/03 01:35:54;;;;;;;31.83;24.25;;;6.50;99.90;;;;;;4992866;28;20030;-74
2024/01/03 01:38:20;;;;;;;31.23;23.77;;;6.50;99.90;;;;;;4991600;28;20027;-74
2024/01/03 01:40:48;;;;;;;30.98;22.38;;;6.50;99.90;;;;;;4992687;28;20026;-74
2024/01/03 01:43:17;;;;;;;28.30;20.40;;;6.50;99.90;;;;;;4991542;28;20468;-74
2024/01/03 01:45:44;;;;;;;27.00;20.65;;;6.50;99.90;;;;;;4990521;28;20065;-74
2024/01/03 01:48:10;;;;;;;48.10;29.58;;;6.50;99.90;;;;;;4991558;28;20118;-74
2024/01/03 01:50:38;;;;;;;39.42;26.20;;;6.40;99.90;;;;;;4990516;28;20113;-74
2024/01/03 01:53:05;;;;;;;32.83;22.55;;;6.50;99.90;;;;;;4992107;28;20026;-74
2024/01/03 01:55:31;;;;;;;25.95;20.95;;;6.50;99.90;;;;;;4992298;28;20138;-74
2024/01/03 01:57:57;;;;;;;31.75;21.83;;;6.50;99.90;;;;;;4990616;28;20123;-74
2024/01/03 02:00:22;;;;;;;32.08;22.50;;;6.50;99.90;;;;;;4990810;28;20030;-74
2024/01/03 02:02:49;;;;;;;26.40;21.27;;;6.50;99.90;;;;;;4990286;28;20084;-74
2024/01/03 02:05:15;;;;;;;22.80;19.52;;;6.50;99.90;;;;;;4988126;28;20096;-74
2024/01/03 02:07:41;;;;;;;24.17;19.40;;;6.50;99.90;;;;;;4991821;28;20037;-74
2024/01/03 02:10:08;;;;;;;25.95;19.50;;;6.50;99.90;;;;;;4992108;28;20029;-74
2024/01/03 02:12:35;;;;;;;25.73;21.08;;;6.50;99.90;;;;;;4991926;28;20030;-74
2024/01/03 02:15:00;;;;;;;31.05;23.30;;;6.50;99.90;;;;;;4988620;28;20491;-74
2024/01/03 02:17:27;;;;;;;32.67;23.85;;;6.60;99.90;;;;;;4990424;28;20065;-74
2024/01/03 02:19:53;;;;;;;34.88;23.73;;;6.50;99.90;;;;;;4990013;28;20045;-74
2024/01/03 02:22:19;;;;;;;33.00;23.25;;;6.60;99.90;;;;;;4990987;28;20022;-76
2024/01/03 02:24:44;;;;;;;33.17;24.38;;;6.60;99.90;;;;;;4992222;28;20026;-76
2024/01/03 02:27:10;;;;;;;31.08;22.77;;;6.60;99.90;;;;;;4988087;28;20152;-76
2024/01/03 02:29:36;;;;;;;33.42;23.67;;;6.60;99.90;;;;;;4992009;28;20030;-76
2024/01/03 02:32:01;;;;;;;30.33;23.25;;;6.60;99.90;;;;;;4990116;28;20039;-76
2024/01/03 02:34:27;;;;;;;31.50;23.33;;;6.50;99.90;;;;;;4991971;28;20027;-76
2024/01/03 02:36:54;;;;;;;31.00;24.00;;;6.50;99.90;;;;;;4989902;28;20118;-76
2024/01/03 02:39:19;;;;;;;33.08;22.92;;;6.50;99.90;;;;;;4991912;28;20037;-76
2024/01/03 02:41:45;;;;;;;33.97;23.52;;;6.40;99.90;;;;;;4989396;28;20480;-76
2024/01/03 02:44:11;;;;;;;37.53;25.80;;;6.40;99.90;;;;;;4991917;28;20038;-76
2024/01/03 02:46:37;;;;;;;34.53;25.05;;;6.50;99.90;;;;;;4990193;28;20527;-76
2024/01/03 02:49:02;;;;;;;40.72;26.20;;;6.40;99.90;;;;;;4991897;28;20035;-76
2024/01/03 02:51:31;;;;;;;36.47;26.15;;;6.40;99.90;;;;;;4990899;28;20026;-76
2024/01/03 02:53:59;;;;;;;36.10;25.88;;;6.40;99.90;;;;;;4990700;28;20034;-76
2024/01/03 02:56:25;;;;;;;35.05;26.00;;;6.40;99.90;;;;;;4993346;28;20057;-76
2024/01/03 02:58:51;;;;;;;39.97;25.27;;;6.40;99.90;;;;;;4991053;28;20125;-76
2024/01/03 03:01:17;;;;;;;41.78;27.17;;;6.40;99.90;;;;;;4994562;28;20099;-76
2024/01/03 03:03:43;;;;;;;36.63;26.65;;;6.50;99.90;;;;;;4990710;28;20053;-76
2024/01/03 03:06:08;;;;;;;34.08;25.30;;;6.50;99.90;;;;;;4991819;28;20030;-76
2024/01/03 03:08:35;;;;;;;39.15;25.50;;;6.50;99.90;;;;;;4991276;28;20388;-76
2024/01/03 03:11:02;;;;;;;36.10;26.08;;;6.50;99.90;;;;;;4989003;28;20027;-76
2024/01/03 03:13:28;;;;;;;43.60;27.67;;;6.50;99.90;;;;;;4987921;28;20392;-76
2024/01/03 03:15:54;;;;;;;39.53;26.95;;;6.50;99.90;;;;;;4989508;28;20110;-76
2024/01/03 03:18:19;;;;;;;49.53;30.58;;;6.50;99.90;;;;;;4993297;28;20034;-76
2024/01/03 03:20:45;;;;;;;42.08;30.15;;;6.40;99.90;;;;;;4995052;28;20042;-76
2024/01/03 03:23:11;;;;;;;47.13;30.98;;;6.40;99.90;;;;;;4994173;28;20030;-76
2024/01/03 03:25:36;;;;;;;48.92;32.78;;;6.40;99.90;;;;;;4994855;28;20027;-76
2024/01/03 03:28:07;;;;;;;50.83;32.92;;;6.40;99.90;;;;;;4994634;28;20105;-76
2024/01/03 03:30:35;;;;;;;41.95;29.83;;;6.40;99.90;;;;;;4994683;28;20037;-76
2024/01/03 03:33:00;;;;;;;46.08;29.38;;;6.50;99.90;;;;;;4988487;28;20022;-76
2024/01/03 03:35:26;;;;;;;44.70;29.88;;;6.50;99.90;;;;;;4992431;28;20161;-76
2024/01/03 03:37:51;;;;;;;44.33;29.70;;;6.50;99.90;;;;;;4993023;28;20404;-76
2024/01/03 03:40:17;;;;;;;49.60;31.42;;;6.50;99.90;;;;;;4994664;28;20038;-76
2024/01/03 03:42:46;;;;;;;51.30;33.05;;;6.50;99.90;;;;;;4993471;28;20026;-76
2024/01/03 03:45:12;;;;;;;45.85;32.00;;;6.50;99.90;;;;;;4990337;28;20501;-76
2024/01/03 03:47:38;;;;;;;44.42;31.17;;;6.60;99.90;;;;;;4992476;28;20033;-76
2024/01/03 03:50:04;;;;;;;47.40;32.83;;;6.60;99.90;;;;;;4994490;28;20404;-76
2024/01/03 03:52:29;;;;;;;45.40;31.60;;;6.70;99.90;;;;;;4993876;28;20030;-76
2024/01/03 03:54:55;;;;;;;47.47;31.95;;;6.60;99.90;;;;;;4991783;28;20392;-76
2024/01/03 03:57:21;;;;;;;53.78;34.17;;;6.50;99.90;;;;;;4991734;28;20057;-76
2024/01/03 03:59:46;;;;;;;48.08;31.15;;;6.40;99.90;;;;;;4992763;28;20532;-76
2024/01/03 04:02:12;;;;;;;41.30;28.10;;;6.40;99.90;;;;;;4993020;28;20026;-76
2024/01/03 04:04:38;;;;;;;42.75;29.85;;;6.40;99.90;;;;;;4992680;28;20038;-76
2024/01/03 04:07:04;;;;;;;41.05;28.20;;;6.50;99.90;;;;;;4991748;28;20393;-76
2024/01/03 04:09:29;;;;;;;46.38;30.35;;;6.50;99.90;;;;;;4992674;28;20038;-76
2024/01/03 04:11:55;;;;;;;45.03;30.95;;;6.50;99.90;;;;;;4992189;28;20018;-76
2024/01/03 04:14:21;;;;;;;45.88;29.52;;;6.50;99.90;;;;;;4992917;28;20045;-76
2024/01/03 04:16:46;;;;;;;36.10;26.88;;;6.50;99.90;;;;;;4993577;28;20029;-76
2024/01/03 04:19:12;;;;;;;39.90;27.90;;;6.50;99.90;;;;;;4993838;28;20435;-76
2024/01/03 04:21:38;;;;;;;41.30;27.80;;;6.50;99.90;;;;;;4993518;28;20080;-76
2024/01/03 04:24:03;;;;;;;38.50;27.80;;;6.50;99.90;;;;;;4993867;28;20033;-76
2024/01/03 04:26:29;;;;;;;44.15;29.02;;;6.60;99.90;;;;;;4993714;28;20022;-76
2024/01/03 04:28:55;;;;;;;38.13;26.20;;;6.50;99.90;;;;;;4991531;28;20030;-76
2024/01/03 04:31:20;;;;;;;37.75;25.25;;;6.50;99.90;;;;;;4993473;28;20030;-76
2024/01/03 04:33:46;;;;;;;34.50;24.75;;;6.50;99.90;;;;;;4992430;28;20031;-76
2024/01/03 04:36:12;;;;;;;33.33;24.23;;;6.50;99.90;;;;;;4993722;28;20027;-76
2024/01/03 04:38:38;;;;;;;32.35;23.52;;;6.50;99.90;;;;;;4993222;28;20027;-76
2024/01/03 04:41:03;;;;;;;31.58;22.50;;;6.40;99.90;;;;;;4993547;28;20068;-76
2024/01/03 04:43:29;;;;;;;30.88;23.55;;;6.50;99.90;;;;;;4991990;28;20022;-76
2024/01/03 04:45:55;;;;;;;34.90;23.75;;;6.50;99.90;;;;;;4993486;28;20476;-76
2024/01/03 04:48:21;;;;;;;32.53;24.73;;;6.50;99.90;;;;;;4993150;28;20488;-76
2024/01/03 04:50:46;;;;;;;38.30;24.65;;;6.50;99.90;;;;;;4992131;28;20431;-76
2024/01/03 04:53:12;;;;;;;38.03;26.08;;;6.40;99.90;;;;;;4992281;28;20088;-76
2024/01/03 04:55:38;;;;;;;49.33;29.17;;;6.40;99.90;;;;;;4993424;28;20136;-76
2024/01/03 04:58:04;;;;;;;40.50;27.33;;;6.40;99.90;;;;;;4992760;28;20034;-76
2024/01/03 05:00:30;;;;;;;40.10;26.98;;;6.40;99.90;;;;;;4993035;28;20085;-76
2024/01/03 05:02:56;;;;;;;37.13;26.80;;;6.30;99.90;;;;;;4993484;28;20558;-76
2024/01/03 05:05:22;;;;;;;37.05;24.60;;;6.30;99.90;;;;;;4994876;28;20022;-76
2024/01/03 05:07:48;;;;;;;35.25;25.05;;;6.30;99.90;;;;;;4992768;28;20038;-76
2024/01/03 05:10:13;;;;;;;32.83;24.50;;;6.30;99.90;;;;;;4991557;28;20480;-76
2024/01/03 05:12:39;;;;;;;33.78;24.35;;;6.30;99.90;;;;;;4991365;28;20113;-76
2024/01/03 05:15:05;;;;;;;34.28;23.10;;;6.30;99.90;;;;;;4992795;28;20065;-76
2024/01/03 05:17:31;;;;;;;32.40;23.10;;;6.30;99.90;;;;;;4992647;28;20037;-76
2024/01/03 05:19:57;;;;;;;33.35;22.90;;;6.40;99.90;;;;;;4991402;28;20038;-76
2024/01/03 05:22:23;;;;;;;32.08;23.58;;;6.40;99.90;;;;;;4992516;28;20032;-76
2024/01/03 05:24:48;;;;;;;28.58;21.92;;;6.40;99.90;;;;;;4992876;28;20057;-76
2024/01/03 05:27:14;;;;;;;32.03;24.15;;;6.40;99.90;;;;;;4990926;28;20030;-76
2024/01/03 05:29:40;;;;;;;33.58;24.10;;;6.40;99.90;;;;;;4992681;28;20030;-76
2024/01/03 05:32:06;;;;;;;34.40;23.15;;;6.40;99.90;;;;;;4992100;28;20035;-76
2024/01/03 05:34:31;;;;;;;33.38;23.30;;;6.40;99.90;;;;;;4988189;28;20031;-76
2024/01/03 05:36:57;;;;;;;35.42;23.38;;;6.50;99.90;;;;;;4988847;28;20042;-76
2024/01/03 05:39:22;;;;;;;35.25;23.02;;;6.50;99.90;;;;;;4992454;28;20022;-76
2024/01/03 05:41:49;;;;;;;27.42;21.20;;;6.50;99.90;;;;;;4990586;28;20084;-76
2024/01/03 05:44:15;;;;;;;28.23;22.27;;;6.50;99.90;;;;;;4992347;28;20026;-76
2024/01/03 05:46:42;;;;;;;28.77;22.08;;;6.50;99.90;;;;;;4992000;28;20081;-76
2024/01/03 05:49:08;;;;;;;29.98;22.05;;;6.50;99.90;;;;;;4992230;28;20026;-76
2024/01/03 05:51:34;;;;;;;29.50;21.85;;;6.50;99.90;;;;;;4992062;28;20030;-76
2024/01/03 05:54:00;;;;;;;30.02;21.20;;;6.50;99.90;;;;;;4992270;28;20113;-76
2024/01/03 05:56:27;;;;;;;25.98;20.55;;;6.50;99.90;;;;;;4991832;28;20050;-76
2024/01/03 05:58:53;;;;;;;25.38;20.73;;;6.50;99.90;;;;;;4992040;28;20237;-76
2024/01/03 06:01:18;;;;;;;32.17;21.48;;;6.50;99.90;;;;;;4991866;28;20436;-76
2024/01/03 06:03:44;;;;;;;28.33;21.33;;;6.50;99.90;;;;;;4987513;28;20030;-76
2024/01/03 06:06:10;;;;;;;32.60;22.92;;;6.50;99.90;;;;;;4992416;28;20053;-76
2024/01/03 06:08:36;;;;;;;29.35;22.45;;;6.40;99.90;;;;;;4991812;28;20037;-76
2024/01/03 06:11:01;;;;;;;40.83;26.27;;;6.50;99.90;;;;;;4992105;28;20034;-76
2024/01/03 06:13:28;;;;;;;38.50;26.25;;;6.50;99.90;;;;;;5004861;28;20029;-76
2024/01/03 06:15:54;;;;;;;42.95;24.25;;;6.50;99.90;;;;;;4991785;28;20547;-76
2024/01/03 06:18:21;;;;;;;39.15;26.08;;;6.40;99.90;;;;;;4991679;28;20113;-76
2024/01/03 06:20:47;;;;;;;47.78;27.60;;;6.40;99.90;;;;;;4991876;28;20030;-76
2024/01/03 06:23:12;;;;;;;42.13;28.63;;;6.40;99.90;;;;;;4991753;28;20446;-76
2024/01/03 06:25:38;;;;;;;43.65;30.08;;;6.40;99.90;;;;;;4991953;28;20030;-76
2024/01/03 06:28:05;;;;;;;40.20;27.63;;;6.30;99.90;;;;;;4991615;28;20042;-76
2024/01/03 06:30:30;;;;;;;37.53;26.92;;;6.30;99.90;;;;;;4990361;28;20385;-76
2024/01/03 06:32:56;;;;;;;34.55;23.35;;;6.30;99.90;;;;;;4991327;28;20042;-76
2024/01/03 06:35:22;;;;;;;36.47;25.35;;;6.30;99.90;;;;;;4991476;28;20038;-76
2024/01/03 06:37:47;;;;;;;37.85;26.27;;;6.40;99.90;;;;;;4987816;28;20108;-76
2024/01/03 06:40:14;;;;;;;37.67;28.45;;;6.40;99.90;;;;;;4990497;28;20030;-76
2024/01/03 06:42:40;;;;;;;37.67;28.05;;;6.40;99.90;;;;;;4991343;28;20069;-76
2024/01/03 06:45:06;;;;;;;36.45;26.63;;;6.40;99.90;;;;;;4990655;28;20026;-76
2024/01/03 06:47:32;;;;;;;36.42;25.23;;;6.40;99.90;;;;;;4991250;28;20109;-76
2024/01/03 06:49:58;;;;;;;38.55;25.63;;;6.40;99.90;;;;;;4988016;28;20122;-76
2024/01/03 06:52:23;;;;;;;38.03;25.48;;;6.40;99.90;;;;;;4993533;28;20018;-76
2024/01/03 06:54:50;;;;;;;35.67;25.05;;;6.40;99.90;;;;;;4995311;28;20057;-76
2024/01/03 06:57:16;;;;;;;32.35;24.17;;;6.40;99.90;;;;;;4995313;28;20488;-74
2024/01/03 06:59:42;;;;;;;38.13;25.02;;;6.40;99.90;;;;;;4997666;28;20057;-73
2024/01/03 07:02:08;;;;;;;34.03;24.67;;;6.40;99.90;;;;;;4993139;28;20026;-74
2024/01/03 07:04:34;;;;;;;33.40;24.52;;;6.40;99.90;;;;;;4995434;28;20105;-74
2024/01/03 07:06:59;;;;;;;29.25;22.48;;;6.40;99.90;;;;;;4994772;28;20113;-74
2024/01/03 07:09:25;;;;;;;30.88;22.00;;;6.40;99.90;;;;;;4995394;28;20034;-74
2024/01/03 07:11:51;;;;;;;35.50;24.83;;;6.40;99.90;;;;;;4994854;28;20373;-74
2024/01/03 07:14:16;;;;;;;32.13;24.98;;;6.40;99.90;;;;;;4995295;28;20057;-74
2024/01/03 07:16:42;;;;;;;33.67;25.58;;;6.40;99.90;;;;;;4993172;28;20485;-74
2024/01/03 07:19:08;;;;;;;36.85;24.70;;;6.40;99.90;;;;;;4995228;28;20030;-74
2024/01/03 07:21:34;;;;;;;34.55;25.67;;;6.50;99.90;;;;;;4993474;28;20390;-74
2024/01/03 07:23:59;;;;;;;37.80;26.02;;;6.40;99.90;;;;;;4994934;28;20026;-74
2024/01/03 07:26:25;;;;;;;38.13;26.83;;;6.30;99.90;;;;;;4994865;28;20029;-74
2024/01/03 07:28:51;;;;;;;44.47;28.42;;;6.30;99.90;;;;;;4994909;28;20032;-74
2024/01/03 07:31:17;;;;;;;81.88;50.83;;;6.30;99.90;;;;;;4993302;28;20026;-74
2024/01/03 07:33:43;;;;;;;90.90;54.67;;;6.40;99.90;;;;;;4994535;28;20488;-74
2024/01/03 07:36:08;;;;;;;52.33;35.53;;;6.40;99.90;;;;;;4993797;28;20097;-74
2024/01/03 07:38:34;;;;;;;47.42;30.98;;;6.40;99.90;;;;;;4994259;28;20031;-74
2024/01/03 07:41:00;;;;;;;109.47;56.78;;;6.40;99.90;;;;;;4994625;28;20026;-74
2024/01/03 07:43:29;;;;;;;137.43;76.18;;;6.40;99.90;;;;;;4994299;28;20034;-74
2024/01/03 07:45:57;;;;;;;73.45;46.10;;;6.30;99.90;;;;;;4991507;28;20312;-74
2024/01/03 07:48:23;;;;;;;66.72;41.10;;;6.30;99.90;;;;;;4994142;28;20106;-74
2024/01/03 07:50:50;;;;;;;83.13;48.20;;;6.40;99.90;;;;;;4993270;28;20121;-74
2024/01/03 07:53:16;;;;;;;78.03;45.45;;;6.40;99.90;;;;;;4994214;28;20064;-74
2024/01/03 07:55:41;;;;;;;64.90;41.05;;;6.40;99.90;;;;;;4994214;28;20485;-74
2024/01/03 07:58:08;;;;;;;50.35;33.33;;;6.50;99.90;;;;;;4994147;28;20040;-74
2024/01/03 08:00:34;;;;;;;45.50;31.23;;;6.50;99.90;;;;;;4993974;28;20034;-74
2024/01/03 08:02:59;;;;;;;44.60;30.70;;;6.50;99.90;;;;;;4990138;28;20392;-74
2024/01/03 08:05:25;;;;;;;42.50;29.98;;;6.50;99.90;;;;;;4991196;28;20026;-74
2024/01/03 08:07:51;;;;;;;41.72;29.60;;;6.60;99.90;;;;;;4993923;28;20083;-74
2024/01/03 08:10:16;;;;;;;42.83;29.20;;;6.60;99.90;;;;;;4994263;28;20062;-74
2024/01/03 08:12:42;;;;;;;41.92;27.77;;;6.60;99.90;;;;;;4993664;28;20039;-74
2024/01/03 08:15:08;;;;;;;42.00;28.85;;;6.60;99.90;;;;;;4994231;28;20387;-74
2024/01/03 08:17:34;;;;;;;50.20;33.70;;;6.60;99.90;;;;;;4993425;28;20085;-74
2024/01/03 08:20:00;;;;;;;49.97;32.65;;;6.60;99.90;;;;;;4994132;28;20093;-74
2024/01/03 08:22:26;;;;;;;44.97;29.85;;;6.60;99.90;;;;;;4992233;28;20034;-74
2024/01/03 08:24:52;;;;;;;43.08;29.48;;;6.60;99.90;;;;;;4994139;28;20034;-74
2024/01/03 08:27:18;;;;;;;51.40;32.13;;;6.60;99.90;;;;;;4992264;28;20057;-74
2024/01/03 08:29:44;;;;;;;47.67;32.50;;;6.60;99.90;;;;;;4993631;28;20081;-74
2024/01/03 08:32:10;;;;;;;47.58;31.38;;;6.60;99.90;;;;;;4993387;28;20061;-74
2024/01/03 08:34:36;;;;;;;49.17;34.70;;;6.60;99.90;;;;;;4993698;28;20069;-74
2024/01/03 08:37:02;;;;;;;47.40;30.15;;;6.70;99.90;;;;;;4993467;28;20038;-74
2024/01/03 08:39:28;;;;;;;42.08;28.98;;;6.70;99.90;;;;;;4993416;28;20027;-73
2024/01/03 08:41:54;;;;;;;42.53;28.48;;;6.70;99.90;;;;;;4993373;28;20499;-74
2024/01/03 08:44:22;;;;;;;41.85;29.50;;;6.70;99.90;;;;;;4992231;28;20026;-74
2024/01/03 08:46:48;;;;;;;42.30;28.13;;;6.80;99.90;;;;;;4993238;28;20033;-74
2024/01/03 08:49:14;;;;;;;51.28;32.15;;;6.70;99.90;;;;;;4987129;28;20392;-74
2024/01/03 08:51:44;;;;;;;51.80;30.60;;;6.70;99.90;;;;;;4988422;28;20031;-74
2024/01/03 08:54:10;;;;;;;46.40;30.50;;;6.70;99.90;;;;;;4992143;28;20035;-74
2024/01/03 08:56:38;;;;;;;41.58;29.58;;;6.70;99.90;;;;;;4993071;28;20129;-74
2024/01/03 08:59:04;;;;;;;40.65;28.48;;;6.60;99.90;;;;;;4994745;28;20452;-74
2024/01/03 09:01:31;;;;;;;44.50;29.48;;;6.70;99.90;;;;;;4991588;28;20018;-74
2024/01/03 09:03:56;;;;;;;44.88;33.15;;;6.70;99.90;;;;;;4989530;28;21223;-74
2024/01/03 09:06:23;;;;;;;49.75;35.20;;;6.70;99.90;;;;;;4992933;28;20026;-74
2024/01/03 09:08:54;;;;;;;48.13;30.75;;;6.70;99.90;;;;;;4992903;28;20392;-74
2024/01/03 09:11:24;;;;;;;45.22;30.42;;;6.80;99.90;;;;;;4992789;28;20073;-74
2024/01/03 09:13:50;;;;;;;47.00;30.40;;;6.80;99.90;;;;;;4991828;28;20109;-74
2024/01/03 09:16:22;;;;;;;50.30;33.17;;;6.80;99.90;;;;;;4992764;28;20098;-74
2024/01/03 09:18:49;;;;;;;46.92;31.20;;;6.80;99.90;;;;;;4992833;28;20010;-74
2024/01/03 09:21:15;;;;;;;45.33;30.67;;;6.80;99.90;;;;;;4992960;28;20181;-74
2024/01/03 09:23:41;;;;;;;42.78;30.70;;;6.80;99.90;;;;;;4992387;28;20030;-74
2024/01/03 09:26:10;;;;;;;46.78;30.65;;;6.80;99.90;;;;;;4992711;28;20113;-74
2024/01/03 09:28:37;;;;;;;49.10;32.17;;;6.80;99.90;;;;;;4992358;28;20023;-74
2024/01/03 09:31:03;;;;;;;49.47;31.13;;;6.90;99.90;;;;;;4991281;28;20061;-74
2024/01/03 09:33:29;;;;;;;49.08;31.73;;;6.90;99.90;;;;;;4986979;28;20023;-74
2024/01/03 09:35:54;;;;;;;43.45;31.80;;;7.00;99.90;;;;;;4992647;28;20027;-74
2024/01/03 09:38:20;;;;;;;46.65;31.55;;;7.00;99.90;;;;;;4992136;28;20033;-74
2024/01/03 09:40:47;;;;;;;48.15;32.20;;;7.00;99.90;;;;;;4992399;28;20058;-74
2024/01/03 09:43:12;;;;;;;51.92;33.42;;;7.00;99.90;;;;;;4990758;28;20022;-74
2024/01/03 09:45:39;;;;;;;54.70;33.22;;;7.00;99.90;;;;;;4992492;28;20049;-74
2024/01/03 09:48:06;;;;;;;47.95;34.58;;;7.00;99.90;;;;;;4992156;28;20026;-74
2024/01/03 09:50:32;;;;;;;52.78;32.70;;;7.00;99.90;;;;;;4992330;28;20026;-74
2024/01/03 09:53:00;;;;;;;49.88;32.13;;;7.00;99.90;;;;;;4990759;28;20121;-74
2024/01/03 09:55:28;;;;;;;44.80;31.95;;;7.10;99.90;;;;;;4992377;28;20054;-74
2024/01/03 09:57:54;;;;;;;48.85;31.52;;;7.00;99.90;;;;;;4992011;28;20415;-74
2024/01/03 10:00:20;;;;;;;38.60;28.45;;;7.10;99.90;;;;;;4992177;28;20026;-74
2024/01/03 10:02:47;;;;;;;37.92;27.05;;;7.10;99.90;;;;;;4991729;28;20026;-75
2024/01/03 10:05:31;;;;;;;40.38;28.30;;;7.20;99.90;;;;;;4991408;28;20018;-74
2024/01/03 10:07:57;;;;;;;39.00;27.90;;;7.20;99.90;;;;;;4989079;28;20427;-74
2024/01/03 10:10:34;;;;;;;40.28;28.50;;;7.30;99.90;;;;;;4992182;28;20089;-74
2024/01/03 10:13:19;;;;;;;41.20;29.02;;;7.30;99.90;;;;;;4989597;28;20124;-74
2024/01/03 10:15:46;;;;;;;42.88;28.20;;;7.30;99.90;;;;;;4991398;28;20030;-74
2024/01/03 10:18:15;;;;;;;40.78;27.95;;;7.40;99.90;;;;;;4991657;28;20045;-74
2024/01/03 10:20:42;;;;;;;35.30;27.10;;;7.40;99.90;;;;;;4991834;28;20077;-74
2024/01/03 10:23:13;;;;;;;37.20;27.20;;;7.40;99.90;;;;;;4991578;28;20042;-74
2024/01/03 10:25:40;;;;;;;36.65;27.10;;;7.50;99.90;;;;;;4990578;28;20393;-74
2024/01/03 10:28:09;;;;;;;35.92;27.67;;;7.50;99.90;;;;;;4989260;28;20026;-74
2024/01/03 10:30:35;;;;;;;37.88;27.00;;;7.60;99.90;;;;;;4988479;28;20023;-74
2024/01/03 10:33:10;;;;;;;33.50;26.33;;;7.60;99.90;;;;;;4989466;28;20023;-74
2024/01/03 10:35:37;;;;;;;42.65;28.70;;;7.60;99.90;;;;;;4986028;28;20105;-74
2024/01/03 10:38:04;;;;;;;40.08;25.83;;;7.70;99.90;;;;;;4985204;28;20138;-74
2024/01/03 10:40:32;;;;;;;34.05;27.20;;;7.70;99.90;;;;;;4991380;28;20033;-74
2024/01/03 10:42:58;;;;;;;36.15;25.92;;;7.70;99.90;;;;;;4990032;28;20033;-74
2024/01/03 10:45:25;;;;;;;35.70;22.33;;;7.70;99.90;;;;;;4990668;28;20069;-74
2024/01/03 10:47:51;;;;;;;35.17;24.17;;;7.70;99.90;;;;;;4989919;28;20022;-74
2024/01/03 10:50:18;;;;;;;35.55;24.55;;;7.80;99.90;;;;;;4989609;28;20096;-74
2024/01/03 10:52:45;;;;;;;32.92;23.80;;;7.80;99.90;;;;;;4991393;28;20106;-74
2024/01/03 10:55:24;;;;;;;29.67;23.95;;;7.80;99.90;;;;;;4988100;28;20046;-74
2024/01/03 10:57:58;;;;;;;37.30;25.42;;;7.80;99.90;;;;;;4990061;28;20034;-74
2024/01/03 11:00:33;;;;;;;37.88;27.40;;;7.90;99.90;;;;;;4991676;28;20030;-74
2024/01/03 11:03:20;;;;;;;36.30;26.38;;;8.00;99.90;;;;;;4989750;28;20037;-74
2024/01/03 11:06:08;;;;;;;33.60;26.05;;;8.00;99.90;;;;;;4991142;28;20027;-74
2024/01/03 11:08:49;;;;;;;40.95;27.60;;;8.10;99.90;;;;;;4965290;28;20499;-74
2024/01/03 11:11:37;;;;;;;37.10;26.25;;;8.10;99.90;;;;;;4988981;28;20469;-74
2024/01/03 11:14:18;;;;;;;35.55;24.63;;;8.20;99.90;;;;;;4987960;28;20106;-74
2024/01/03 11:16:44;;;;;;;35.65;24.30;;;8.20;99.90;;;;;;4990986;28;20057;-74
2024/01/03 11:19:11;;;;;;;30.60;22.10;;;8.20;99.90;;;;;;4987947;28;20023;-74
2024/01/03 11:21:41;;;;;;;30.13;22.25;;;8.40;99.90;;;;;;4989035;28;20033;-74
2024/01/03 11:24:09;;;;;;;28.80;21.80;;;8.40;99.90;;;;;;4989328;28;20014;-73
2024/01/03 11:29:48;;;;;;;29.55;21.42;;;8.50;99.90;;;;;;4990204;28;20389;-74
2024/01/03 11:32:34;;;;;;;33.20;22.27;;;8.60;99.90;;;;;;4981567;28;20030;-74
2024/01/03 11:35:01;;;;;;;37.42;26.70;;;8.60;99.90;;;;;;4985691;28;20108;-74
2024/01/03 11:37:30;;;;;;;45.10;28.10;;;8.60;99.90;;;;;;4990064;28;20100;-74
2024/01/03 11:39:56;;;;;;;46.42;32.05;;;8.70;99.90;;;;;;4994813;28;20030;-74
2024/01/03 11:42:28;;;;;;;48.47;31.73;;;8.70;99.90;;;;;;4994444;28;20084;-74
2024/01/03 11:45:04;;;;;;;52.97;33.75;;;8.70;99.90;;;;;;4992591;28;20453;-74
2024/01/03 11:47:30;;;;;;;60.88;38.25;;;8.70;99.90;;;;;;4985988;28;20507;-74
2024/01/03 11:49:56;;;;;;;54.42;34.78;;;8.70;99.90;;;;;;4994675;28;20062;-74
2024/01/03 11:52:23;;;;;;;55.00;35.17;;;8.70;99.90;;;;;;4994125;28;20491;-74
2024/01/03 11:54:52;;;;;;;52.92;34.85;;;8.80;99.90;;;;;;4994543;28;20046;-74
2024/01/03 11:57:21;;;;;;;54.70;35.80;;;8.80;99.90;;;;;;4993948;28;20543;-74
2024/01/03 11:59:56;;;;;;;59.08;37.42;;;8.90;99.90;;;;;;4990811;28;20385;-74
2024/01/03 12:02:22;;;;;;;54.83;36.50;;;8.90;99.90;;;;;;4990270;28;21126;-74
2024/01/03 12:04:48;;;;;;;57.10;38.22;;;9.00;99.90;;;;;;4992573;28;20061;-74
2024/01/03 12:07:13;;;;;;;59.78;38.03;;;9.00;99.90;;;;;;4992049;28;20384;-74
2024/01/03 12:09:39;;;;;;;60.92;38.63;;;9.00;99.90;;;;;;4992266;28;20058;-74
2024/01/03 12:12:06;;;;;;;54.25;38.50;;;9.00;99.90;;;;;;4990720;28;20369;-74
2024/01/03 12:14:31;;;;;;;56.97;38.15;;;9.10;99.90;;;;;;4992183;28;20037;-73
2024/01/03 12:16:58;;;;;;;56.97;38.80;;;9.10;99.90;;;;;;4991727;28;20026;-74
2024/01/03 12:19:28;;;;;;;56.70;39.08;;;9.20;99.90;;;;;;4992178;28;20397;-73
2024/01/03 12:21:59;;;;;;;57.47;41.10;;;9.20;99.90;;;;;;4993828;28;20034;-73
2024/01/03 12:24:44;;;;;;;59.53;40.25;;;9.20;99.90;;;;;;4991989;28;20049;-73
2024/01/03 12:27:10;;;;;;;57.08;36.72;;;9.30;99.90;;;;;;4990076;28;20041;-74
2024/01/03 12:29:37;;;;;;;56.15;37.72;;;9.30;99.90;;;;;;4994023;28;20416;-74
2024/01/03 12:32:16;;;;;;;59.55;37.25;;;9.40;99.90;;;;;;4993323;28;20038;-74
2024/01/03 12:34:43;;;;;;;54.42;38.17;;;9.40;99.90;;;;;;4993874;28;20022;-74
2024/01/03 12:37:08;;;;;;;56.33;38.40;;;9.50;99.90;;;;;;4992243;28;20494;-74